Overview Statistics Trail Chart Weather Telemetry Raw packets
 

This is the latest recevied weather packets stored in our database for station/object EA5JMY-10. If no packets are shown the sender has not sent any weather packets the latest 10 day(s).

<< 6 7 8 9 10 11 12 >>
Time Temp. Humidity Pressure Rain* Wind** Luminosity Snow
1788449142 31.67° C 57% 1022.5 hPa - - - -
1788448242 31.11° C 58% 1022.7 hPa - - - -
1788447342 31.67° C 55% 1022.8 hPa - - - -
1788446442 31.67° C 56% 1022.8 hPa - - - -
1788445542 32.22° C 53% 1023 hPa - - - -
1788444642 31.67° C 52% 1023.2 hPa - - - -
1788443742 32.22° C 53% 1023.2 hPa - - - -
1788442842 31.67° C 55% 1023.3 hPa - - - -
1788441942 32.78° C 51% 1023.3 hPa - - - -
1788441056 33.33° C 49% 1023.6 hPa - - - -
1788440141 32.78° C 50% 1023.6 hPa - - - -
1788439241 32.78° C 50% 1023.6 hPa - - - -
1788438341 32.78° C 49% 1023.6 hPa - - - -
1788437441 33.89° C 46% 1023.8 hPa - - - -
1788436541 33.89° C 45% 1023.9 hPa - - - -
1788435641 35° C 43% 1024.1 hPa - - - -
1788434741 35° C 43% 1024.2 hPa - - - -
1788433841 36.11° C 41% 1024.3 hPa - - - -
1788432940 35.56° C 43% 1024.5 hPa - - - -
1788432040 33.89° C 49% 1024.6 hPa - - - -
1788431140 36.67° C 41% 1024.8 hPa - - - -
1788430262 36.11° C 41% 1024.9 hPa - - - -
1788429340 35.56° C 41% 1024.9 hPa - - - -
1788428440 35° C 43% 1024.9 hPa - - - -
1788427539 33.33° C 49% 1024.8 hPa - - - -

* Rain since midnight (hover to see other rain measurements)
** Current wind speed in m/s (hover to see current wind gust speed)